Time;durP1;ratioP1;P1;durP2;ratioP2;P2;SDS_P1;SDS_P2;PMS_P1;PMS_P2;Temp;Humidity;BMP_temperature;BMP_pressure;BME280_temperature;BME280_humidity;BME280_pressure;Samples;Min_cycle;Max_cycle;Signal;HPM_P1;HPM_P2
2022/11/16 00:00:20;;;;;;;12.10;9.70;;;10.40;99.90;;;;;;4783865;29;20058;-84
2022/11/16 00:02:47;;;;;;;14.07;9.93;;;10.40;99.90;;;;;;4781481;29;20050;-84
2022/11/16 00:05:13;;;;;;;15.13;10.00;;;10.40;99.90;;;;;;4778993;29;20046;-84
2022/11/16 00:07:39;;;;;;;13.57;10.55;;;10.40;99.90;;;;;;4767187;29;20050;-84
2022/11/16 00:10:06;;;;;;;15.50;11.75;;;10.50;99.90;;;;;;4778177;29;20053;-83
2022/11/16 00:12:31;;;;;;;14.07;10.60;;;10.50;99.90;;;;;;4778240;29;20050;-83
2022/11/16 00:14:57;;;;;;;13.32;9.98;;;10.50;99.90;;;;;;4752879;29;20061;-84
2022/11/16 00:17:23;;;;;;;13.27;10.93;;;10.50;99.90;;;;;;4779503;29;20042;-83
2022/11/16 00:19:50;;;;;;;14.25;10.98;;;10.50;99.90;;;;;;4779445;29;20513;-83
2022/11/16 00:22:16;;;;;;;12.60;10.38;;;10.50;99.90;;;;;;4768809;29;20118;-84
2022/11/16 00:24:42;;;;;;;16.33;11.60;;;10.60;99.90;;;;;;4764784;29;20050;-83
2022/11/16 00:27:07;;;;;;;16.50;11.13;;;10.40;99.90;;;;;;4792121;29;20081;-84
2022/11/16 00:29:33;;;;;;;16.52;11.93;;;10.60;99.90;;;;;;4778921;29;20074;-84
2022/11/16 00:31:59;;;;;;;16.77;12.88;;;10.60;99.90;;;;;;4767023;29;20575;-84
2022/11/16 00:34:25;;;;;;;17.08;12.45;;;10.60;99.90;;;;;;4787079;29;20084;-83
2022/11/16 00:36:50;;;;;;;16.42;13.35;;;10.60;99.90;;;;;;4763293;29;20057;-83
2022/11/16 00:39:17;;;;;;;18.70;13.13;;;10.60;99.90;;;;;;4797283;29;20111;-84
2022/11/16 00:41:44;;;;;;;17.52;13.90;;;10.60;99.90;;;;;;4792561;29;20051;-83
2022/11/16 00:44:10;;;;;;;16.65;13.23;;;10.70;99.90;;;;;;4797975;29;20088;-84
2022/11/16 00:46:36;;;;;;;18.20;13.90;;;10.70;99.90;;;;;;4765927;29;20047;-83
2022/11/16 00:49:02;;;;;;;22.00;14.43;;;10.70;99.90;;;;;;4808859;29;20056;-84
2022/11/16 00:51:28;;;;;;;16.52;13.45;;;10.70;99.90;;;;;;4792752;29;20064;-83
2022/11/16 00:53:54;;;;;;;17.17;12.35;;;10.70;99.90;;;;;;4766693;29;20050;-83
2022/11/16 00:56:19;;;;;;;19.70;14.13;;;10.70;99.90;;;;;;4764816;29;20054;-84
2022/11/16 00:58:45;;;;;;;17.73;13.55;;;10.70;99.90;;;;;;4763143;29;20082;-84
2022/11/16 01:01:11;;;;;;;18.77;13.95;;;10.70;99.90;;;;;;4778350;29;20054;-84
2022/11/16 01:03:37;;;;;;;18.00;13.95;;;10.70;99.90;;;;;;4792446;29;20050;-84
2022/11/16 01:06:06;;;;;;;16.83;13.10;;;10.70;99.90;;;;;;4792403;29;20058;-84
2022/11/16 01:08:33;;;;;;;19.10;14.05;;;10.70;99.90;;;;;;4791581;29;20125;-84
2022/11/16 01:12:07;;;;;;;20.85;14.18;;;10.70;99.90;;;;;;4792441;29;20136;-83
2022/11/16 01:13:45;;;;;;;17.30;13.50;;;10.70;99.90;;;;;;4789594;29;20061;-83
2022/11/16 01:16:19;;;;;;;19.95;14.07;;;10.70;99.90;;;;;;4767570;29;20315;-84
2022/11/16 01:18:52;;;;;;;19.10;13.70;;;10.70;99.90;;;;;;4790684;29;21334;-84
2022/11/16 01:21:19;;;;;;;21.50;13.85;;;10.70;99.90;;;;;;4776769;29;20046;-84
2022/11/16 01:23:45;;;;;;;19.40;14.13;;;10.70;99.90;;;;;;4789496;29;20463;-85
2022/11/16 01:26:11;;;;;;;18.52;13.50;;;10.60;99.90;;;;;;4778940;29;20054;-83
2022/11/16 01:28:36;;;;;;;20.50;15.00;;;10.70;99.90;;;;;;4793859;29;20053;-83
2022/11/16 01:31:02;;;;;;;18.40;14.57;;;10.70;99.90;;;;;;4781202;29;20056;-84
2022/11/16 01:33:28;;;;;;;18.08;13.43;;;10.70;99.90;;;;;;4779589;29;20058;-84
2022/11/16 01:35:54;;;;;;;19.40;14.02;;;11.10;99.90;;;;;;4792992;29;20058;-83
2022/11/16 01:38:20;;;;;;;17.48;14.52;;;10.70;99.90;;;;;;4791616;29;20058;-84
2022/11/16 01:40:46;;;;;;;17.60;12.75;;;10.70;99.90;;;;;;4795294;29;20047;-83
2022/11/16 01:43:22;;;;;;;20.80;14.93;;;10.70;99.90;;;;;;4777994;29;20519;-83
2022/11/16 01:45:48;;;;;;;19.58;14.60;;;10.80;99.90;;;;;;4792153;29;20054;-83
2022/11/16 01:48:23;;;;;;;17.95;14.15;;;10.80;99.90;;;;;;4799702;29;20121;-83
2022/11/16 01:50:50;;;;;;;17.48;15.07;;;10.80;99.90;;;;;;4798369;29;20061;-83
2022/11/16 01:53:16;;;;;;;18.35;14.35;;;10.80;99.90;;;;;;4781176;29;20077;-83
2022/11/16 01:55:43;;;;;;;19.90;14.32;;;10.80;99.90;;;;;;4782613;29;20238;-82
2022/11/16 01:58:13;;;;;;;20.60;15.05;;;10.80;99.90;;;;;;4796900;29;20473;-84
2022/11/16 02:00:39;;;;;;;19.30;15.00;;;11.20;99.90;;;;;;4777937;29;20121;-84
2022/11/16 02:03:05;;;;;;;19.45;14.48;;;10.80;99.90;;;;;;4797089;29;20145;-84
2022/11/16 02:05:42;;;;;;;18.48;14.52;;;10.80;99.90;;;;;;4764708;29;20050;-82
2022/11/16 02:11:16;;;;;;;19.38;14.40;;;10.80;99.90;;;;;;4797018;29;20069;-84
2022/11/16 02:13:58;;;;;;;17.60;14.27;;;10.80;99.90;;;;;;4778532;29;20115;-84
2022/11/16 02:16:38;;;;;;;19.85;14.68;;;10.80;99.90;;;;;;4796286;29;20473;-84
2022/11/16 02:19:32;;;;;;;18.13;14.48;;;10.80;99.90;;;;;;4793426;29;20413;-84
2022/11/16 02:22:26;;;;;;;18.77;14.82;;;10.80;99.90;;;;;;4794761;29;20048;-84
2022/11/16 02:25:14;;;;;;;19.25;14.07;;;10.80;99.90;;;;;;4794647;29;20062;-82
2022/11/16 02:28:14;;;;;;;18.95;14.90;;;10.80;99.90;;;;;;4808407;29;20058;-83
2022/11/16 02:30:44;;;;;;;18.77;14.35;;;10.80;99.90;;;;;;4792727;29;20054;-84
2022/11/16 02:33:14;;;;;;;16.30;12.90;;;10.80;99.90;;;;;;4779363;29;20062;-83
2022/11/16 02:35:54;;;;;;;16.02;13.45;;;10.80;99.90;;;;;;4793496;29;20046;-84
2022/11/16 02:38:26;;;;;;;16.98;13.30;;;10.80;99.90;;;;;;4781252;29;20054;-83
2022/11/16 02:41:00;;;;;;;18.83;13.52;;;10.90;99.90;;;;;;4780631;29;20074;-83
2022/11/16 02:43:35;;;;;;;17.00;13.95;;;10.80;99.90;;;;;;4794541;29;20050;-82
2022/11/16 02:46:09;;;;;;;19.83;14.35;;;10.80;99.90;;;;;;4809528;29;20066;-84
2022/11/16 02:48:40;;;;;;;20.00;14.38;;;10.90;99.90;;;;;;4794796;29;20062;-83
2022/11/16 02:51:07;;;;;;;17.73;13.35;;;10.90;99.90;;;;;;4781308;29;20054;-84
2022/11/16 02:53:51;;;;;;;18.90;15.00;;;10.90;99.90;;;;;;4788280;29;20058;-83
2022/11/16 02:56:17;;;;;;;17.80;14.63;;;10.90;99.90;;;;;;4778731;29;20131;-83
2022/11/16 02:58:44;;;;;;;18.73;13.90;;;10.50;99.90;;;;;;4781805;29;20061;-85
2022/11/16 03:01:19;;;;;;;17.27;13.15;;;10.90;99.90;;;;;;4793311;29;20516;-84
2022/11/16 03:03:52;;;;;;;20.40;14.20;;;10.90;99.90;;;;;;4780394;29;21491;-84
2022/11/16 03:06:27;;;;;;;17.70;13.95;;;10.90;99.90;;;;;;4789706;29;20494;-83
2022/11/16 03:09:00;;;;;;;16.35;13.40;;;10.90;99.90;;;;;;4792374;29;20065;-82
2022/11/16 03:14:17;;;;;;;16.55;13.68;;;10.90;99.90;;;;;;4793126;29;20062;-83
2022/11/16 03:16:49;;;;;;;17.23;14.43;;;10.90;99.90;;;;;;4796188;29;20066;-83
2022/11/16 03:19:31;;;;;;;17.33;13.52;;;10.90;99.90;;;;;;4777949;29;20133;-82
2022/11/16 03:22:13;;;;;;;20.20;15.18;;;10.90;99.90;;;;;;4779438;29;20050;-83
2022/11/16 03:24:40;;;;;;;18.85;14.80;;;10.90;99.90;;;;;;4793922;29;20046;-83
2022/11/16 03:27:19;;;;;;;18.90;14.75;;;10.90;99.90;;;;;;4780440;29;20050;-83
2022/11/16 03:30:08;;;;;;;16.63;13.05;;;10.90;99.90;;;;;;4792536;29;20058;-83
2022/11/16 03:32:52;;;;;;;19.10;14.00;;;10.90;99.90;;;;;;4791886;29;20137;-84
2022/11/16 03:35:21;;;;;;;19.50;14.98;;;10.90;99.90;;;;;;4795405;29;20054;-82
2022/11/16 03:37:49;;;;;;;17.20;13.48;;;10.90;99.90;;;;;;4794685;29;20191;-84
2022/11/16 03:40:17;;;;;;;18.48;14.25;;;10.90;99.90;;;;;;4777099;29;20058;-84
2022/11/16 03:42:44;;;;;;;17.60;13.73;;;11.00;99.90;;;;;;4779930;29;20090;-84
2022/11/16 03:45:12;;;;;;;16.35;12.93;;;11.00;99.90;;;;;;4791237;29;20047;-83
2022/11/16 03:47:39;;;;;;;17.67;13.00;;;11.00;99.90;;;;;;4794080;29;20076;-83
2022/11/16 03:50:05;;;;;;;16.77;13.70;;;11.00;99.90;;;;;;4792081;29;20166;-83
2022/11/16 03:52:31;;;;;;;16.88;13.15;;;11.00;99.90;;;;;;4778120;29;20046;-83
2022/11/16 03:54:57;;;;;;;17.88;13.20;;;11.00;99.90;;;;;;4762557;29;20050;-83
2022/11/16 03:57:23;;;;;;;18.60;14.05;;;11.00;99.90;;;;;;4778548;29;20076;-83
2022/11/16 03:59:48;;;;;;;17.38;13.25;;;11.00;99.90;;;;;;4780639;29;20056;-83
2022/11/16 04:02:14;;;;;;;18.13;13.90;;;11.00;99.90;;;;;;4778025;29;20146;-83
2022/11/16 04:24:12;;;;;;;18.60;14.25;;;11.10;99.90;;;;;;4792270;29;21316;-83
2022/11/16 04:29:25;;;;;;;17.85;13.60;;;11.10;99.90;;;;;;4783170;29;20832;-83
2022/11/16 04:40:03;;;;;;;13.55;9.25;;;11.10;99.90;;;;;;4788910;29;20054;-83
2022/11/16 04:42:29;;;;;;;10.80;8.27;;;11.10;99.90;;;;;;4779005;29;20058;-82
2022/11/16 04:47:39;;;;;;;12.38;7.75;;;11.00;99.90;;;;;;4781806;29;20058;-82
2022/11/16 04:50:05;;;;;;;12.75;7.38;;;11.00;99.90;;;;;;4795422;29;20276;-83
2022/11/16 04:52:31;;;;;;;13.80;8.20;;;11.00;99.90;;;;;;4749374;29;20050;-82
2022/11/16 04:54:56;;;;;;;12.82;7.50;;;11.00;99.90;;;;;;4749461;29;20054;-82
2022/11/16 04:57:22;;;;;;;10.10;7.20;;;10.90;99.90;;;;;;4745377;29;20111;-82
2022/11/16 04:59:48;;;;;;;10.90;6.82;;;10.90;99.90;;;;;;4764083;29;20116;-83
2022/11/16 05:02:14;;;;;;;11.02;7.38;;;10.90;99.90;;;;;;4765561;29;20050;-83
2022/11/16 05:04:42;;;;;;;9.80;6.57;;;10.90;99.90;;;;;;4791824;29;20287;-83
2022/11/16 05:07:10;;;;;;;11.23;7.25;;;10.90;99.90;;;;;;4779688;29;20117;-83
2022/11/16 05:09:47;;;;;;;11.38;7.00;;;10.90;99.90;;;;;;4791533;29;20053;-82
2022/11/16 05:12:22;;;;;;;11.30;7.93;;;11.20;99.90;;;;;;4792067;29;20088;-82
2022/11/16 05:14:47;;;;;;;11.57;7.18;;;10.80;99.90;;;;;;4789751;29;20042;-82
2022/11/16 05:17:14;;;;;;;14.23;7.50;;;10.80;99.90;;;;;;4764432;29;20054;-83
2022/11/16 05:22:25;;;;;;;10.20;7.00;;;10.80;99.90;;;;;;4790117;29;20061;-83
2022/11/16 05:24:51;;;;;;;8.98;6.65;;;10.80;99.90;;;;;;4780276;29;20058;-83
2022/11/16 05:27:18;;;;;;;13.90;6.88;;;10.80;99.90;;;;;;4781020;29;20062;-83
2022/11/16 05:29:45;;;;;;;9.27;5.95;;;10.70;99.90;;;;;;4782826;29;20150;-86
2022/11/16 05:32:11;;;;;;;9.93;6.13;;;10.70;99.90;;;;;;4781915;29;20059;-83
2022/11/16 05:34:38;;;;;;;8.98;5.68;;;10.70;99.90;;;;;;4796024;29;20066;-83
2022/11/16 05:37:04;;;;;;;6.93;5.20;;;10.70;99.90;;;;;;4780909;29;20045;-83
2022/11/16 05:39:29;;;;;;;6.80;4.45;;;10.70;99.90;;;;;;4783160;29;20066;-82
2022/11/16 05:41:56;;;;;;;7.38;4.60;;;10.60;99.90;;;;;;4782376;29;20046;-83
2022/11/16 05:44:22;;;;;;;8.10;4.28;;;10.60;99.90;;;;;;4781035;29;20051;-83
2022/11/16 05:46:48;;;;;;;6.50;4.07;;;10.60;99.90;;;;;;4780997;29;20517;-83
2022/11/16 05:49:14;;;;;;;7.85;4.40;;;10.60;99.90;;;;;;4781917;29;20050;-83
2022/11/16 05:51:42;;;;;;;7.82;4.72;;;10.60;99.90;;;;;;4781534;29;20469;-82
2022/11/16 05:54:12;;;;;;;9.05;4.32;;;10.60;99.90;;;;;;4780516;29;20489;-83
2022/11/16 05:56:38;;;;;;;9.23;4.75;;;10.50;99.90;;;;;;4795864;29;20059;-83
2022/11/16 05:59:04;;;;;;;9.43;5.25;;;10.50;99.90;;;;;;4780416;29;20051;-83
2022/11/16 06:01:30;;;;;;;8.95;5.53;;;10.50;99.90;;;;;;4781564;29;20057;-83
2022/11/16 06:04:01;;;;;;;10.82;6.03;;;10.30;99.90;;;;;;4766559;29;20053;-82
2022/11/16 06:06:27;;;;;;;9.45;5.88;;;10.50;99.90;;;;;;4780119;29;20107;-82
2022/11/16 06:08:53;;;;;;;11.70;6.10;;;10.50;99.90;;;;;;4780262;29;20046;-82
2022/11/16 06:11:20;;;;;;;9.30;6.50;;;10.50;99.90;;;;;;4797447;29;20129;-83
2022/11/16 06:13:45;;;;;;;10.32;6.65;;;10.40;99.90;;;;;;4778357;29;20061;-84
2022/11/16 06:16:12;;;;;;;11.88;6.72;;;10.40;99.90;;;;;;4813191;29;20930;-81
2022/11/16 06:18:39;;;;;;;11.07;6.00;;;10.50;99.90;;;;;;4798940;29;20050;-83
2022/11/16 06:21:06;;;;;;;11.30;7.25;;;10.40;99.90;;;;;;4780671;29;20058;-83
2022/11/16 06:23:32;;;;;;;11.70;7.10;;;10.40;99.90;;;;;;4796447;29;20058;-84
2022/11/16 06:25:58;;;;;;;10.77;6.20;;;10.40;99.90;;;;;;4793982;29;20507;-84
2022/11/16 06:28:25;;;;;;;10.13;6.40;;;10.40;99.90;;;;;;4793915;29;20137;-82
2022/11/16 06:30:50;;;;;;;9.00;6.43;;;10.40;99.90;;;;;;4794250;29;20054;-83
2022/11/16 06:33:17;;;;;;;8.45;5.32;;;10.30;99.90;;;;;;4792053;29;20137;-82
2022/11/16 06:35:43;;;;;;;8.95;5.82;;;10.40;99.90;;;;;;4780338;29;20073;-83
2022/11/16 06:38:09;;;;;;;11.63;6.82;;;10.30;99.90;;;;;;4779720;29;20061;-84
2022/11/16 06:40:38;;;;;;;8.60;6.45;;;10.30;99.90;;;;;;4781292;29;20046;-84
2022/11/16 06:43:04;;;;;;;9.25;6.95;;;10.30;99.90;;;;;;4794113;29;20054;-83
2022/11/16 06:45:29;;;;;;;11.15;7.70;;;10.30;99.90;;;;;;4780895;29;20061;-83
2022/11/16 06:47:55;;;;;;;10.00;7.13;;;10.30;99.90;;;;;;4766295;29;20064;-83
2022/11/16 06:50:21;;;;;;;10.25;7.07;;;10.30;99.90;;;;;;4782428;29;20149;-86
2022/11/16 06:52:48;;;;;;;12.07;8.57;;;10.30;99.90;;;;;;4773484;29;20493;-84
2022/11/16 06:55:15;;;;;;;12.23;9.25;;;10.30;99.90;;;;;;4792121;29;20066;-84
2022/11/16 06:57:41;;;;;;;13.38;8.85;;;10.30;99.90;;;;;;4778388;29;20055;-83
2022/11/16 07:00:09;;;;;;;11.73;9.40;;;10.30;99.90;;;;;;4791081;29;20046;-86
2022/11/16 07:02:38;;;;;;;12.15;9.15;;;10.30;99.90;;;;;;4786280;29;20050;-83
2022/11/16 07:05:05;;;;;;;11.68;9.13;;;10.30;99.90;;;;;;4774626;29;20065;-84
2022/11/16 07:07:31;;;;;;;11.50;8.98;;;10.30;99.90;;;;;;4790958;29;20983;-83
2022/11/16 07:09:58;;;;;;;10.95;8.63;;;10.30;99.90;;;;;;4775700;29;20046;-84
2022/11/16 07:12:23;;;;;;;16.52;9.80;;;10.60;99.90;;;;;;4781090;29;20123;-84
2022/11/16 07:14:49;;;;;;;12.38;8.48;;;10.20;99.90;;;;;;4792740;29;20062;-82
2022/11/16 07:17:15;;;;;;;11.27;8.10;;;10.20;99.90;;;;;;4760394;29;20058;-83
2022/11/16 07:19:40;;;;;;;13.00;8.02;;;10.20;99.90;;;;;;4791979;29;20086;-83
2022/11/16 07:22:06;;;;;;;10.48;7.43;;;10.20;99.90;;;;;;4759633;29;20051;-84
2022/11/16 07:24:32;;;;;;;10.73;7.97;;;10.20;99.90;;;;;;4763857;29;20050;-84
2022/11/16 07:26:58;;;;;;;12.02;8.13;;;10.20;99.90;;;;;;4761668;29;20409;-84
2022/11/16 07:29:24;;;;;;;10.77;8.45;;;10.20;99.90;;;;;;4776666;29;20054;-84
2022/11/16 07:31:50;;;;;;;11.15;8.02;;;10.20;99.90;;;;;;4790412;29;20070;-84
2022/11/16 07:34:16;;;;;;;12.32;8.55;;;10.20;99.90;;;;;;4792215;29;20284;-83
2022/11/16 07:36:42;;;;;;;11.50;8.50;;;10.20;99.90;;;;;;4809826;29;20057;-84
2022/11/16 07:39:09;;;;;;;13.05;8.88;;;10.20;99.90;;;;;;4764792;29;20054;-83
2022/11/16 07:41:37;;;;;;;12.13;8.60;;;10.10;99.90;;;;;;4762440;29;20137;-83
2022/11/16 07:44:03;;;;;;;11.68;8.27;;;11.00;99.90;;;;;;4788487;29;20054;-84
2022/11/16 07:46:29;;;;;;;11.38;8.55;;;10.10;99.90;;;;;;4764282;29;20054;-84
2022/11/16 07:48:55;;;;;;;13.57;9.48;;;10.10;99.90;;;;;;4774245;29;20989;-84
2022/11/16 07:51:21;;;;;;;12.45;8.80;;;10.20;99.90;;;;;;4779471;29;20065;-84
2022/11/16 07:53:51;;;;;;;14.30;8.90;;;10.40;99.90;;;;;;4792173;29;20054;-84
2022/11/16 07:56:16;;;;;;;14.95;9.27;;;10.10;99.90;;;;;;4792231;29;20043;-83
2022/11/16 07:58:42;;;;;;;13.00;9.55;;;10.10;99.90;;;;;;4804542;29;20061;-83
2022/11/16 08:01:13;;;;;;;13.25;10.57;;;10.10;99.90;;;;;;4762485;29;20173;-83
2022/11/16 08:03:40;;;;;;;14.60;10.32;;;10.10;99.90;;;;;;4792125;29;20058;-84
2022/11/16 08:06:13;;;;;;;14.40;10.60;;;10.00;99.90;;;;;;4772284;29;20058;-83
2022/11/16 08:08:38;;;;;;;16.30;11.05;;;10.10;99.90;;;;;;4776818;29;20126;-83
2022/11/16 08:11:06;;;;;;;14.90;11.05;;;10.10;99.90;;;;;;4774282;29;20050;-83
2022/11/16 08:13:34;;;;;;;16.77;11.55;;;10.30;99.90;;;;;;4789015;29;20055;-83
2022/11/16 08:16:01;;;;;;;16.70;11.45;;;10.10;99.90;;;;;;4774783;29;20524;-84
2022/11/16 08:18:27;;;;;;;17.88;12.27;;;10.10;99.90;;;;;;4775879;29;20042;-84
2022/11/16 08:20:53;;;;;;;19.65;12.32;;;10.10;99.90;;;;;;4773064;29;20069;-83
2022/11/16 08:23:19;;;;;;;17.45;12.38;;;10.20;99.90;;;;;;4788798;29;20129;-83
2022/11/16 08:25:47;;;;;;;19.77;12.65;;;10.10;99.90;;;;;;4777958;29;20054;-83
2022/11/16 08:28:13;;;;;;;20.98;13.70;;;10.20;99.90;;;;;;4773840;29;20046;-84
2022/11/16 08:30:39;;;;;;;19.40;13.02;;;10.20;99.90;;;;;;4761566;29;20061;-83
2022/11/16 08:33:06;;;;;;;17.13;12.75;;;10.20;99.90;;;;;;4776860;29;20141;-84
2022/11/16 08:35:33;;;;;;;18.98;13.57;;;10.30;99.90;;;;;;4758317;29;20054;-82
2022/11/16 08:37:59;;;;;;;17.58;12.55;;;10.30;99.90;;;;;;4791757;29;20126;-84
2022/11/16 08:40:24;;;;;;;18.58;12.68;;;10.30;99.90;;;;;;4776727;29;20447;-85
2022/11/16 08:42:55;;;;;;;17.70;12.43;;;10.30;99.90;;;;;;4767980;29;20054;-85
2022/11/16 08:45:22;;;;;;;19.67;12.85;;;10.30;99.90;;;;;;4774447;29;20054;-85
2022/11/16 08:47:48;;;;;;;20.02;14.02;;;10.30;99.90;;;;;;4776232;29;20054;-84
2022/11/16 08:50:14;;;;;;;21.08;13.80;;;10.40;99.90;;;;;;4793517;29;20096;-85
2022/11/16 08:52:40;;;;;;;21.38;14.38;;;10.40;99.90;;;;;;4751142;29;20103;-84
2022/11/16 08:55:06;;;;;;;20.63;14.45;;;10.40;99.90;;;;;;4779613;29;20501;-84
2022/11/16 08:57:32;;;;;;;19.80;14.43;;;10.50;99.90;;;;;;4780641;29;20112;-85
2022/11/16 08:59:58;;;;;;;21.27;14.43;;;10.50;99.90;;;;;;4767010;29;20061;-84
2022/11/16 09:02:24;;;;;;;21.48;14.10;;;10.60;99.90;;;;;;4781519;29;20043;-84
2022/11/16 09:04:51;;;;;;;24.25;15.00;;;10.60;99.90;;;;;;4767132;29;20055;-85
2022/11/16 09:07:17;;;;;;;22.88;14.55;;;10.70;99.90;;;;;;4795923;29;20108;-85
2022/11/16 09:09:43;;;;;;;26.08;15.93;;;10.80;99.90;;;;;;4759729;29;20234;-85
2022/11/16 09:12:09;;;;;;;26.60;15.63;;;10.80;99.90;;;;;;4778502;29;20446;-85
2022/11/16 09:14:35;;;;;;;27.92;15.95;;;11.00;99.90;;;;;;4793161;29;20058;-85
2022/11/16 09:17:00;;;;;;;21.33;14.90;;;11.10;99.90;;;;;;4777334;29;20074;-85
2022/11/16 09:19:27;;;;;;;24.45;15.75;;;11.20;99.90;;;;;;4759422;29;20046;-85
2022/11/16 09:21:53;;;;;;;23.45;14.95;;;11.20;99.90;;;;;;4795469;29;20050;-85
2022/11/16 09:24:19;;;;;;;19.83;13.10;;;11.20;99.90;;;;;;4798105;29;20959;-84
2022/11/16 09:26:45;;;;;;;19.20;13.23;;;11.30;99.90;;;;;;4777676;29;20050;-85
2022/11/16 09:29:12;;;;;;;17.65;10.90;;;11.20;99.90;;;;;;4761555;29;20065;-84
2022/11/16 09:31:38;;;;;;;15.82;9.60;;;11.30;99.90;;;;;;4794257;29;20054;-86
2022/11/16 09:34:04;;;;;;;16.63;9.18;;;11.30;99.90;;;;;;4777030;29;20097;-84
2022/11/16 09:36:30;;;;;;;12.68;8.25;;;11.30;99.90;;;;;;4785968;29;20505;-86
2022/11/16 09:38:56;;;;;;;13.38;7.82;;;11.40;99.90;;;;;;4796693;29;20058;-84
2022/11/16 09:41:53;;;;;;;15.82;7.88;;;11.70;99.90;;;;;;4781419;29;20097;-85
2022/11/16 09:44:22;;;;;;;;;;;12.00;99.90;;;;;;4781333;29;20353;-84
2022/11/16 09:46:53;;;;;;;8.85;5.70;;;12.60;99.90;;;;;;4782575;29;19928;-84
2022/11/16 09:49:24;;;;;;;9.95;5.35;;;13.00;99.90;;;;;;4778995;29;20042;-83
2022/11/16 09:51:54;;;;;;;10.10;4.75;;;12.90;99.90;;;;;;4795949;29;20058;-84
2022/11/16 09:54:23;;;;;;;11.07;5.43;;;12.60;99.90;;;;;;4795601;29;20070;-83
2022/11/16 09:56:53;;;;;;;7.90;4.32;;;12.50;99.90;;;;;;4794415;29;20054;-84
2022/11/16 09:59:24;;;;;;;6.38;4.10;;;12.40;99.90;;;;;;4784232;29;20081;-82
2022/11/16 10:02:00;;;;;;;9.02;4.93;;;12.30;99.90;;;;;;4775350;29;20493;-84
2022/11/16 10:04:38;;;;;;;9.85;4.88;;;12.30;99.90;;;;;;4795495;29;20249;-84
2022/11/16 10:07:33;;;;;;;11.70;4.30;;;12.20;99.90;;;;;;4781004;29;20911;-84
2022/11/16 10:09:59;;;;;;;7.78;3.80;;;12.20;99.90;;;;;;4794792;29;20058;-84
2022/11/16 10:12:53;;;;;;;7.65;3.47;;;12.40;99.90;;;;;;4782086;29;20050;-84
2022/11/16 10:15:40;;;;;;;8.95;3.95;;;12.40;99.90;;;;;;4796711;29;20141;-84
2022/11/16 10:18:22;;;;;;;9.52;3.75;;;12.30;99.90;;;;;;4799412;29;20409;-83
2022/11/16 10:21:02;;;;;;;8.30;4.00;;;12.20;99.90;;;;;;4800025;29;20171;-83
2022/11/16 10:23:37;;;;;;;8.63;4.15;;;12.30;99.90;;;;;;4798789;29;20054;-85
2022/11/16 10:26:21;;;;;;;10.38;4.60;;;12.60;99.90;;;;;;4796715;29;20062;-83
2022/11/16 10:29:05;;;;;;;10.15;4.53;;;13.10;99.90;;;;;;4784693;29;20133;-84
2022/11/16 10:31:39;;;;;;;10.48;4.28;;;13.40;99.90;;;;;;4779676;29;20043;-82
2022/11/16 10:34:07;;;;;;;9.07;3.85;;;13.40;99.90;;;;;;4786796;29;20498;-83
2022/11/16 10:36:36;;;;;;;7.10;3.50;;;13.40;99.90;;;;;;4777496;29;20053;-83
2022/11/16 10:39:10;;;;;;;9.82;4.05;;;12.30;99.90;;;;;;4795442;29;20050;-84
2022/11/16 10:41:43;;;;;;;7.70;3.80;;;13.30;99.90;;;;;;4799701;29;20065;-83
2022/11/16 10:44:35;;;;;;;10.43;4.22;;;13.60;99.90;;;;;;4798176;29;20497;-83
2022/11/16 10:47:11;;;;;;;7.20;3.83;;;13.60;99.90;;;;;;4798087;29;20093;-86
2022/11/16 10:49:58;;;;;;;8.82;4.43;;;13.30;99.90;;;;;;4796396;29;20046;-85
2022/11/16 10:52:24;;;;;;;7.68;3.67;;;12.90;99.90;;;;;;4779571;29;20560;-86
2022/11/16 10:54:50;;;;;;;10.07;3.85;;;12.60;99.90;;;;;;4796447;29;20069;-87
2022/11/16 10:57:16;;;;;;;8.52;3.95;;;12.40;99.90;;;;;;4795356;29;20107;-84
2022/11/16 10:59:47;;;;;;;9.23;4.22;;;12.20;99.90;;;;;;4783755;29;20576;-83
2022/11/16 11:02:35;;;;;;;7.00;3.80;;;12.10;99.90;;;;;;4795277;29;20069;-84
2022/11/16 11:05:15;;;;;;;10.43;4.43;;;11.90;99.90;;;;;;4794754;29;20133;-84
2022/11/16 11:07:48;;;;;;;6.95;4.38;;;11.80;99.90;;;;;;4794511;29;20068;-84
2022/11/16 11:10:41;;;;;;;10.38;4.85;;;11.70;99.90;;;;;;4795495;29;20409;-85
2022/11/16 11:13:10;;;;;;;7.53;4.50;;;11.70;99.90;;;;;;4777577;29;20605;-84
2022/11/16 11:15:44;;;;;;;10.55;5.22;;;11.50;99.90;;;;;;4794728;29;20145;-85
2022/11/16 11:18:22;;;;;;;10.63;5.30;;;12.80;99.90;;;;;;4795239;29;20602;-85
2022/11/16 11:21:16;;;;;;;11.65;5.40;;;11.50;99.90;;;;;;4797095;29;20055;-84
2022/11/16 11:23:54;;;;;;;7.20;5.13;;;11.50;99.90;;;;;;4795280;29;20061;-84
2022/11/16 11:26:40;;;;;;;8.30;4.75;;;11.50;99.90;;;;;;4777992;29;20577;-84
2022/11/16 11:29:30;;;;;;;9.93;4.82;;;10.20;99.90;;;;;;4795508;29;20375;-84
2022/11/16 11:32:04;;;;;;;11.48;5.03;;;11.40;99.90;;;;;;4790881;29;20489;-83
2022/11/16 11:34:33;;;;;;;9.68;4.75;;;11.40;99.90;;;;;;4778401;29;20073;-84
2022/11/16 11:37:02;;;;;;;8.77;4.97;;;11.30;99.90;;;;;;4782267;29;20050;-83
2022/11/16 11:39:31;;;;;;;9.68;4.47;;;11.40;99.90;;;;;;4790448;29;20058;-83
2022/11/16 11:42:12;;;;;;;11.10;5.55;;;11.30;99.90;;;;;;4792213;29;20054;-84
2022/11/16 11:45:11;;;;;;;9.63;5.53;;;11.50;99.90;;;;;;4794359;29;20513;-84
2022/11/16 11:47:45;;;;;;;10.90;5.55;;;11.40;99.90;;;;;;4782819;29;20505;-84
2022/11/16 11:50:16;;;;;;;8.18;4.78;;;11.50;99.90;;;;;;4793496;29;20739;-85
2022/11/16 11:53:14;;;;;;;9.02;5.72;;;11.50;99.90;;;;;;4794370;29;20084;-85
2022/11/16 11:55:40;;;;;;;10.50;5.45;;;11.50;99.90;;;;;;4791594;29;20549;-84
2022/11/16 11:58:14;;;;;;;11.20;4.88;;;11.50;99.90;;;;;;4765992;29;20050;-85
2022/11/16 12:01:18;;;;;;;9.77;4.90;;;11.70;99.90;;;;;;4794704;29;22100;-84
2022/11/16 12:03:56;;;;;;;11.95;4.97;;;11.60;99.90;;;;;;4798635;29;20057;-83
2022/11/16 12:06:44;;;;;;;9.80;4.95;;;11.50;99.90;;;;;;4781859;29;20061;-86
2022/11/16 12:09:47;;;;;;;9.25;4.63;;;11.50;99.90;;;;;;4796935;29;20599;-85
2022/11/16 12:12:22;;;;;;;9.55;4.97;;;11.50;99.90;;;;;;4750284;29;20365;-86
2022/11/16 12:15:06;;;;;;;6.03;4.43;;;11.50;99.90;;;;;;4792087;29;20231;-84
2022/11/16 12:17:51;;;;;;;11.00;4.63;;;11.50;99.90;;;;;;4794973;29;20645;-84
2022/11/16 12:20:40;;;;;;;13.55;5.03;;;11.50;99.90;;;;;;4778385;29;20050;-84
2022/11/16 12:23:45;;;;;;;9.40;4.85;;;11.60;99.90;;;;;;4795623;29;20057;-83
2022/11/16 12:26:40;;;;;;;10.90;4.80;;;11.70;99.90;;;;;;4795001;29;20065;-85
2022/11/16 12:29:25;;;;;;;11.25;4.97;;;11.70;99.90;;;;;;4798939;29;20062;-84
2022/11/16 12:32:06;;;;;;;12.73;4.70;;;10.80;99.90;;;;;;4798973;29;20115;-84
2022/11/16 12:34:32;;;;;;;9.98;4.72;;;11.90;99.90;;;;;;4781480;29;20073;-84
2022/11/16 12:37:19;;;;;;;9.98;5.07;;;11.80;99.90;;;;;;4781320;29;20046;-84
2022/11/16 12:40:13;;;;;;;11.32;4.88;;;11.90;99.90;;;;;;4799693;29;20065;-84
2022/11/16 12:43:14;;;;;;;10.20;4.30;;;11.80;99.90;;;;;;4776891;29;20050;-83
2022/11/16 12:46:05;;;;;;;10.02;4.40;;;11.70;99.90;;;;;;4783641;29;20461;-84
2022/11/16 12:48:46;;;;;;;11.55;4.15;;;11.60;99.90;;;;;;4766047;29;20179;-85
2022/11/16 12:51:57;;;;;;;11.82;4.03;;;11.60;99.90;;;;;;4792027;29;20058;-83
2022/11/16 12:55:07;;;;;;;11.40;4.13;;;11.00;99.90;;;;;;4790370;29;20062;-84
2022/11/16 12:58:01;;;;;;;7.13;3.92;;;11.70;99.90;;;;;;4796971;29;20882;-88
2022/11/16 13:00:39;;;;;;;11.27;3.78;;;11.60;99.90;;;;;;4798519;29;20057;-86
2022/11/16 13:03:35;;;;;;;8.43;3.42;;;11.80;99.90;;;;;;4801000;29;20058;-86
2022/11/16 13:06:12;;;;;;;8.57;3.33;;;11.60;99.90;;;;;;4785619;29;20057;-87
2022/11/16 13:09:22;;;;;;;8.50;3.65;;;11.70;99.90;;;;;;4784075;29;20038;-88
2022/11/16 13:12:24;;;;;;;9.10;3.63;;;11.30;99.90;;;;;;4774487;29;20477;-86
2022/11/16 13:15:46;;;;;;;;;;;;;;;;;;;;;
2022/11/16 13:18:30;;;;;;;;;;;;;;;;;;;;;
2022/11/16 13:21:35;;;;;;;8.10;3.05;;;11.50;99.90;;;;;;4801293;29;20069;-87
2022/11/16 13:24:30;;;;;;;8.77;3.40;;;11.30;99.90;;;;;;4780412;29;20122;-88
2022/11/16 13:27:14;;;;;;;7.60;2.85;;;11.30;99.90;;;;;;4798406;29;20173;-87
2022/11/16 13:29:51;;;;;;;7.35;2.80;;;11.20;99.90;;;;;;4796389;29;20632;-88
2022/11/16 13:32:32;;;;;;;9.32;3.53;;;11.20;99.90;;;;;;4795410;29;20061;-88
2022/11/16 13:35:00;;;;;;;8.90;2.97;;;11.10;99.90;;;;;;4795222;29;20239;-84
2022/11/16 13:37:38;;;;;;;6.55;2.58;;;11.20;99.90;;;;;;4777497;29;20175;-87
2022/11/16 13:40:18;;;;;;;;;;;;;;;;;;;;;
2022/11/16 13:43:03;;;;;;;8.73;2.83;;;11.40;99.90;;;;;;4799148;29;20054;-87
2022/11/16 13:45:45;;;;;;;7.25;2.45;;;11.10;99.90;;;;;;4802152;29;20046;-88